sensor_id;sensor_type;location;lat;lon;timestamp;P1;durP1;ratioP1;P2;durP2;ratioP2
24739;SDS011;45234;48.148;17.128;2023-04-24T00:00:35;10.40;;;8.10;;
24739;SDS011;45234;48.148;17.128;2023-04-24T00:03:06;12.82;;;7.85;;
24739;SDS011;45234;48.148;17.128;2023-04-24T00:05:33;17.98;;;7.05;;
24739;SDS011;45234;48.148;17.128;2023-04-24T00:08:00;9.77;;;7.53;;
24739;SDS011;45234;48.148;17.128;2023-04-24T00:10:27;9.55;;;7.65;;
24739;SDS011;45234;48.148;17.128;2023-04-24T00:12:55;9.23;;;7.60;;
24739;SDS011;45234;48.148;17.128;2023-04-24T00:15:22;9.40;;;8.25;;
24739;SDS011;45234;48.148;17.128;2023-04-24T00:17:49;10.35;;;7.75;;
24739;SDS011;45234;48.148;17.128;2023-04-24T00:20:17;9.80;;;8.00;;
24739;SDS011;45234;48.148;17.128;2023-04-24T00:22:44;12.52;;;8.52;;
24739;SDS011;45234;48.148;17.128;2023-04-24T00:25:11;10.73;;;8.18;;
24739;SDS011;45234;48.148;17.128;2023-04-24T00:27:38;10.52;;;8.38;;
24739;SDS011;45234;48.148;17.128;2023-04-24T00:30:06;10.30;;;8.63;;
24739;SDS011;45234;48.148;17.128;2023-04-24T00:32:36;11.45;;;8.10;;
24739;SDS011;45234;48.148;17.128;2023-04-24T00:35:03;9.27;;;8.20;;
24739;SDS011;45234;48.148;17.128;2023-04-24T00:37:32;11.68;;;8.85;;
24739;SDS011;45234;48.148;17.128;2023-04-24T00:39:59;13.30;;;8.80;;
24739;SDS011;45234;48.148;17.128;2023-04-24T00:42:29;10.88;;;8.45;;
24739;SDS011;45234;48.148;17.128;2023-04-24T00:44:56;11.40;;;8.43;;
24739;SDS011;45234;48.148;17.128;2023-04-24T00:47:23;11.10;;;9.00;;
24739;SDS011;45234;48.148;17.128;2023-04-24T00:49:51;10.38;;;9.20;;
24739;SDS011;45234;48.148;17.128;2023-04-24T00:52:18;13.73;;;8.70;;
24739;SDS011;45234;48.148;17.128;2023-04-24T00:54:46;11.18;;;9.23;;
24739;SDS011;45234;48.148;17.128;2023-04-24T00:57:13;10.20;;;8.02;;
24739;SDS011;45234;48.148;17.128;2023-04-24T00:59:41;11.50;;;8.05;;
24739;SDS011;45234;48.148;17.128;2023-04-24T01:02:09;12.65;;;8.65;;
24739;SDS011;45234;48.148;17.128;2023-04-24T01:04:37;14.15;;;8.35;;
24739;SDS011;45234;48.148;17.128;2023-04-24T01:07:05;12.18;;;8.95;;
24739;SDS011;45234;48.148;17.128;2023-04-24T01:09:37;12.10;;;9.02;;
24739;SDS011;45234;48.148;17.128;2023-04-24T01:12:08;10.98;;;8.52;;
24739;SDS011;45234;48.148;17.128;2023-04-24T01:14:36;10.13;;;8.35;;
24739;SDS011;45234;48.148;17.128;2023-04-24T01:17:03;11.95;;;8.95;;
24739;SDS011;45234;48.148;17.128;2023-04-24T01:19:30;12.18;;;8.75;;
24739;SDS011;45234;48.148;17.128;2023-04-24T01:21:58;10.38;;;8.48;;
24739;SDS011;45234;48.148;17.128;2023-04-24T01:24:28;10.27;;;8.25;;
24739;SDS011;45234;48.148;17.128;2023-04-24T01:26:55;10.05;;;8.48;;
24739;SDS011;45234;48.148;17.128;2023-04-24T01:29:22;10.18;;;7.68;;
24739;SDS011;45234;48.148;17.128;2023-04-24T01:31:49;11.38;;;8.68;;
24739;SDS011;45234;48.148;17.128;2023-04-24T01:34:17;9.23;;;7.78;;
24739;SDS011;45234;48.148;17.128;2023-04-24T01:36:45;9.77;;;7.95;;
24739;SDS011;45234;48.148;17.128;2023-04-24T01:39:12;11.73;;;8.10;;
24739;SDS011;45234;48.148;17.128;2023-04-24T01:41:40;12.57;;;7.80;;
24739;SDS011;45234;48.148;17.128;2023-04-24T01:44:07;10.40;;;8.48;;
24739;SDS011;45234;48.148;17.128;2023-04-24T01:46:34;10.35;;;7.47;;
24739;SDS011;45234;48.148;17.128;2023-04-24T01:49:02;11.40;;;8.20;;
24739;SDS011;45234;48.148;17.128;2023-04-24T01:51:29;9.15;;;7.78;;
24739;SDS011;45234;48.148;17.128;2023-04-24T01:53:57;9.88;;;7.95;;
24739;SDS011;45234;48.148;17.128;2023-04-24T01:56:24;9.57;;;7.88;;
24739;SDS011;45234;48.148;17.128;2023-04-24T01:58:51;12.05;;;8.65;;
24739;SDS011;45234;48.148;17.128;2023-04-24T02:01:19;11.43;;;8.60;;
24739;SDS011;45234;48.148;17.128;2023-04-24T02:03:46;9.85;;;8.63;;
24739;SDS011;45234;48.148;17.128;2023-04-24T02:06:14;11.00;;;8.23;;
24739;SDS011;45234;48.148;17.128;2023-04-24T02:08:41;11.73;;;8.43;;
24739;SDS011;45234;48.148;17.128;2023-04-24T02:11:09;9.20;;;8.27;;
24739;SDS011;45234;48.148;17.128;2023-04-24T02:13:36;9.13;;;7.90;;
24739;SDS011;45234;48.148;17.128;2023-04-24T02:16:03;13.82;;;9.10;;
24739;SDS011;45234;48.148;17.128;2023-04-24T02:18:50;11.05;;;8.57;;
24739;SDS011;45234;48.148;17.128;2023-04-24T02:21:17;10.05;;;8.57;;
24739;SDS011;45234;48.148;17.128;2023-04-24T02:23:43;12.75;;;8.18;;
24739;SDS011;45234;48.148;17.128;2023-04-24T02:26:11;11.82;;;9.32;;
24739;SDS011;45234;48.148;17.128;2023-04-24T02:28:38;10.75;;;9.65;;
24739;SDS011;45234;48.148;17.128;2023-04-24T02:31:05;10.32;;;8.50;;
24739;SDS011;45234;48.148;17.128;2023-04-24T02:33:32;11.70;;;8.68;;
24739;SDS011;45234;48.148;17.128;2023-04-24T02:35:59;9.55;;;7.97;;
24739;SDS011;45234;48.148;17.128;2023-04-24T02:38:26;10.95;;;8.98;;
24739;SDS011;45234;48.148;17.128;2023-04-24T02:40:53;11.20;;;8.93;;
24739;SDS011;45234;48.148;17.128;2023-04-24T02:43:20;10.68;;;8.88;;
24739;SDS011;45234;48.148;17.128;2023-04-24T02:45:47;10.98;;;8.75;;
24739;SDS011;45234;48.148;17.128;2023-04-24T02:48:14;12.27;;;9.68;;
24739;SDS011;45234;48.148;17.128;2023-04-24T02:50:42;13.05;;;9.32;;
24739;SDS011;45234;48.148;17.128;2023-04-24T02:53:09;11.85;;;9.68;;
24739;SDS011;45234;48.148;17.128;2023-04-24T02:55:36;9.15;;;8.15;;
24739;SDS011;45234;48.148;17.128;2023-04-24T02:58:03;11.98;;;9.40;;
24739;SDS011;45234;48.148;17.128;2023-04-24T03:00:31;10.40;;;9.30;;
24739;SDS011;45234;48.148;17.128;2023-04-24T03:02:58;9.75;;;8.65;;
24739;SDS011;45234;48.148;17.128;2023-04-24T03:05:26;12.57;;;9.70;;
24739;SDS011;45234;48.148;17.128;2023-04-24T03:07:53;13.88;;;10.48;;
24739;SDS011;45234;48.148;17.128;2023-04-24T03:10:20;11.32;;;9.60;;
24739;SDS011;45234;48.148;17.128;2023-04-24T03:12:48;12.70;;;10.02;;
24739;SDS011;45234;48.148;17.128;2023-04-24T03:15:17;12.05;;;9.77;;
24739;SDS011;45234;48.148;17.128;2023-04-24T03:17:43;12.18;;;9.02;;
24739;SDS011;45234;48.148;17.128;2023-04-24T03:20:11;12.38;;;10.00;;
24739;SDS011;45234;48.148;17.128;2023-04-24T03:22:38;12.60;;;9.48;;
24739;SDS011;45234;48.148;17.128;2023-04-24T03:25:06;12.35;;;9.70;;
24739;SDS011;45234;48.148;17.128;2023-04-24T03:27:36;12.05;;;9.73;;
24739;SDS011;45234;48.148;17.128;2023-04-24T03:30:10;14.43;;;10.07;;
24739;SDS011;45234;48.148;17.128;2023-04-24T03:32:44;11.63;;;9.60;;
24739;SDS011;45234;48.148;17.128;2023-04-24T03:35:15;12.75;;;9.95;;
24739;SDS011;45234;48.148;17.128;2023-04-24T03:37:42;15.02;;;9.40;;
24739;SDS011;45234;48.148;17.128;2023-04-24T03:40:29;13.70;;;10.02;;
24739;SDS011;45234;48.148;17.128;2023-04-24T03:42:57;13.80;;;9.50;;
24739;SDS011;45234;48.148;17.128;2023-04-24T03:45:24;16.75;;;10.52;;
24739;SDS011;45234;48.148;17.128;2023-04-24T03:47:51;12.63;;;9.95;;
24739;SDS011;45234;48.148;17.128;2023-04-24T03:50:18;13.07;;;10.10;;
24739;SDS011;45234;48.148;17.128;2023-04-24T03:52:45;14.90;;;10.13;;
24739;SDS011;45234;48.148;17.128;2023-04-24T03:55:27;18.38;;;10.57;;
24739;SDS011;45234;48.148;17.128;2023-04-24T03:57:53;12.52;;;10.30;;
24739;SDS011;45234;48.148;17.128;2023-04-24T04:00:21;14.90;;;9.73;;
24739;SDS011;45234;48.148;17.128;2023-04-24T04:02:59;13.27;;;11.18;;
24739;SDS011;45234;48.148;17.128;2023-04-24T04:05:27;13.50;;;11.20;;
24739;SDS011;45234;48.148;17.128;2023-04-24T04:07:55;15.85;;;12.20;;
24739;SDS011;45234;48.148;17.128;2023-04-24T04:10:22;12.90;;;11.60;;
24739;SDS011;45234;48.148;17.128;2023-04-24T04:12:49;14.85;;;11.40;;
24739;SDS011;45234;48.148;17.128;2023-04-24T04:15:16;13.70;;;11.57;;
24739;SDS011;45234;48.148;17.128;2023-04-24T04:17:43;15.55;;;12.65;;
24739;SDS011;45234;48.148;17.128;2023-04-24T04:20:11;16.88;;;12.15;;
24739;SDS011;45234;48.148;17.128;2023-04-24T04:22:39;16.67;;;12.10;;
24739;SDS011;45234;48.148;17.128;2023-04-24T04:25:13;15.10;;;11.68;;
24739;SDS011;45234;48.148;17.128;2023-04-24T04:27:41;12.80;;;11.10;;
24739;SDS011;45234;48.148;17.128;2023-04-24T04:30:10;20.20;;;12.07;;
24739;SDS011;45234;48.148;17.128;2023-04-24T04:32:50;15.48;;;12.43;;
24739;SDS011;45234;48.148;17.128;2023-04-24T04:35:17;16.70;;;11.60;;
24739;SDS011;45234;48.148;17.128;2023-04-24T04:37:44;11.45;;;10.35;;
24739;SDS011;45234;48.148;17.128;2023-04-24T04:40:39;12.90;;;11.13;;
24739;SDS011;45234;48.148;17.128;2023-04-24T04:43:06;15.77;;;11.55;;
24739;SDS011;45234;48.148;17.128;2023-04-24T04:45:40;15.73;;;10.75;;
24739;SDS011;45234;48.148;17.128;2023-04-24T04:48:36;15.38;;;11.45;;
24739;SDS011;45234;48.148;17.128;2023-04-24T04:51:05;13.98;;;10.32;;
24739;SDS011;45234;48.148;17.128;2023-04-24T04:53:32;14.77;;;10.60;;
24739;SDS011;45234;48.148;17.128;2023-04-24T04:56:00;16.95;;;10.98;;
24739;SDS011;45234;48.148;17.128;2023-04-24T04:58:35;13.30;;;11.02;;
24739;SDS011;45234;48.148;17.128;2023-04-24T05:01:03;14.70;;;11.05;;
24739;SDS011;45234;48.148;17.128;2023-04-24T05:03:37;14.52;;;11.23;;
24739;SDS011;45234;48.148;17.128;2023-04-24T05:06:08;12.88;;;11.07;;
24739;SDS011;45234;48.148;17.128;2023-04-24T05:08:39;13.95;;;11.55;;
24739;SDS011;45234;48.148;17.128;2023-04-24T05:11:10;13.73;;;11.45;;
24739;SDS011;45234;48.148;17.128;2023-04-24T05:13:39;13.27;;;11.88;;
24739;SDS011;45234;48.148;17.128;2023-04-24T05:16:15;12.95;;;11.25;;
24739;SDS011;45234;48.148;17.128;2023-04-24T05:18:42;14.88;;;11.85;;
24739;SDS011;45234;48.148;17.128;2023-04-24T05:21:12;14.60;;;10.60;;
24739;SDS011;45234;48.148;17.128;2023-04-24T05:23:42;13.25;;;10.85;;
24739;SDS011;45234;48.148;17.128;2023-04-24T05:26:13;12.43;;;11.13;;
24739;SDS011;45234;48.148;17.128;2023-04-24T05:28:41;15.18;;;10.98;;
24739;SDS011;45234;48.148;17.128;2023-04-24T05:31:10;22.15;;;11.30;;
24739;SDS011;45234;48.148;17.128;2023-04-24T05:33:38;13.43;;;10.52;;
24739;SDS011;45234;48.148;17.128;2023-04-24T05:36:05;16.30;;;10.75;;
24739;SDS011;45234;48.148;17.128;2023-04-24T05:38:34;13.60;;;10.10;;
24739;SDS011;45234;48.148;17.128;2023-04-24T05:41:01;15.88;;;11.07;;
24739;SDS011;45234;48.148;17.128;2023-04-24T05:43:28;15.60;;;10.70;;
24739;SDS011;45234;48.148;17.128;2023-04-24T05:45:55;11.05;;;9.00;;
24739;SDS011;45234;48.148;17.128;2023-04-24T05:48:22;16.85;;;10.82;;
24739;SDS011;45234;48.148;17.128;2023-04-24T05:50:49;14.68;;;11.00;;
24739;SDS011;45234;48.148;17.128;2023-04-24T05:53:18;16.50;;;10.68;;
24739;SDS011;45234;48.148;17.128;2023-04-24T05:55:46;12.25;;;11.05;;
24739;SDS011;45234;48.148;17.128;2023-04-24T05:58:14;15.85;;;12.95;;
24739;SDS011;45234;48.148;17.128;2023-04-24T06:00:42;12.75;;;11.38;;
24739;SDS011;45234;48.148;17.128;2023-04-24T06:03:10;14.52;;;12.45;;
24739;SDS011;45234;48.148;17.128;2023-04-24T06:05:38;18.05;;;12.13;;
24739;SDS011;45234;48.148;17.128;2023-04-24T06:08:05;15.65;;;12.13;;
24739;SDS011;45234;48.148;17.128;2023-04-24T06:10:36;13.90;;;11.38;;
24739;SDS011;45234;48.148;17.128;2023-04-24T06:13:05;14.32;;;11.50;;
24739;SDS011;45234;48.148;17.128;2023-04-24T06:15:34;14.60;;;11.43;;
24739;SDS011;45234;48.148;17.128;2023-04-24T06:18:05;20.45;;;11.25;;
24739;SDS011;45234;48.148;17.128;2023-04-24T06:20:34;15.93;;;10.95;;
24739;SDS011;45234;48.148;17.128;2023-04-24T06:23:01;17.00;;;11.25;;
24739;SDS011;45234;48.148;17.128;2023-04-24T06:25:31;12.45;;;9.80;;
24739;SDS011;45234;48.148;17.128;2023-04-24T06:27:58;13.23;;;10.30;;
24739;SDS011;45234;48.148;17.128;2023-04-24T06:30:27;11.43;;;10.07;;
24739;SDS011;45234;48.148;17.128;2023-04-24T06:32:55;12.07;;;9.52;;
24739;SDS011;45234;48.148;17.128;2023-04-24T06:35:35;10.13;;;8.38;;
24739;SDS011;45234;48.148;17.128;2023-04-24T06:38:04;10.90;;;7.47;;
24739;SDS011;45234;48.148;17.128;2023-04-24T06:40:31;6.43;;;5.72;;
24739;SDS011;45234;48.148;17.128;2023-04-24T06:42:57;11.07;;;6.93;;
24739;SDS011;45234;48.148;17.128;2023-04-24T06:45:25;8.32;;;4.55;;
24739;SDS011;45234;48.148;17.128;2023-04-24T06:47:52;6.22;;;4.30;;
24739;SDS011;45234;48.148;17.128;2023-04-24T06:50:21;5.05;;;4.55;;
24739;SDS011;45234;48.148;17.128;2023-04-24T06:52:48;6.05;;;3.92;;
24739;SDS011;45234;48.148;17.128;2023-04-24T06:55:15;3.72;;;3.40;;
24739;SDS011;45234;48.148;17.128;2023-04-24T06:57:42;5.22;;;4.30;;
24739;SDS011;45234;48.148;17.128;2023-04-24T07:00:10;4.35;;;3.65;;
24739;SDS011;45234;48.148;17.128;2023-04-24T07:02:37;4.20;;;3.80;;
24739;SDS011;45234;48.148;17.128;2023-04-24T07:05:05;11.35;;;4.03;;
24739;SDS011;45234;48.148;17.128;2023-04-24T07:07:34;6.78;;;3.55;;
24739;SDS011;45234;48.148;17.128;2023-04-24T07:10:04;5.32;;;3.45;;
24739;SDS011;45234;48.148;17.128;2023-04-24T07:12:32;3.70;;;3.40;;
24739;SDS011;45234;48.148;17.128;2023-04-24T07:14:59;4.20;;;3.40;;
24739;SDS011;45234;48.148;17.128;2023-04-24T07:17:30;4.45;;;3.33;;
24739;SDS011;45234;48.148;17.128;2023-04-24T07:19:57;4.32;;;3.65;;
24739;SDS011;45234;48.148;17.128;2023-04-24T07:22:24;4.68;;;3.60;;
24739;SDS011;45234;48.148;17.128;2023-04-24T07:24:50;4.38;;;3.08;;
24739;SDS011;45234;48.148;17.128;2023-04-24T07:27:17;3.97;;;3.67;;
24739;SDS011;45234;48.148;17.128;2023-04-24T07:29:44;6.68;;;3.33;;
24739;SDS011;45234;48.148;17.128;2023-04-24T07:32:11;5.88;;;3.40;;
24739;SDS011;45234;48.148;17.128;2023-04-24T07:34:38;5.65;;;3.38;;
24739;SDS011;45234;48.148;17.128;2023-04-24T07:37:06;6.10;;;3.40;;
24739;SDS011;45234;48.148;17.128;2023-04-24T07:39:33;5.75;;;3.90;;
24739;SDS011;45234;48.148;17.128;2023-04-24T07:42:00;4.68;;;3.92;;
24739;SDS011;45234;48.148;17.128;2023-04-24T07:44:28;6.15;;;3.75;;
24739;SDS011;45234;48.148;17.128;2023-04-24T07:46:56;6.82;;;3.67;;
24739;SDS011;45234;48.148;17.128;2023-04-24T07:49:27;8.68;;;3.55;;
24739;SDS011;45234;48.148;17.128;2023-04-24T07:51:54;6.68;;;3.58;;
24739;SDS011;45234;48.148;17.128;2023-04-24T07:54:23;4.70;;;4.13;;
24739;SDS011;45234;48.148;17.128;2023-04-24T07:56:52;4.30;;;3.90;;
24739;SDS011;45234;48.148;17.128;2023-04-24T07:59:20;6.07;;;3.55;;
24739;SDS011;45234;48.148;17.128;2023-04-24T08:01:52;4.00;;;3.13;;
24739;SDS011;45234;48.148;17.128;2023-04-24T08:04:20;5.53;;;3.50;;
24739;SDS011;45234;48.148;17.128;2023-04-24T08:06:48;5.20;;;4.13;;
24739;SDS011;45234;48.148;17.128;2023-04-24T08:09:16;5.78;;;3.75;;
24739;SDS011;45234;48.148;17.128;2023-04-24T08:11:43;4.00;;;3.38;;
24739;SDS011;45234;48.148;17.128;2023-04-24T08:14:10;3.63;;;3.33;;
24739;SDS011;45234;48.148;17.128;2023-04-24T08:16:39;4.82;;;3.70;;
24739;SDS011;45234;48.148;17.128;2023-04-24T08:19:07;3.47;;;3.17;;
24739;SDS011;45234;48.148;17.128;2023-04-24T08:21:35;13.93;;;3.50;;
24739;SDS011;45234;48.148;17.128;2023-04-24T08:24:02;10.00;;;3.67;;
24739;SDS011;45234;48.148;17.128;2023-04-24T08:26:32;3.38;;;3.08;;
24739;SDS011;45234;48.148;17.128;2023-04-24T08:28:59;9.93;;;2.80;;
24739;SDS011;45234;48.148;17.128;2023-04-24T08:31:27;9.20;;;2.90;;
24739;SDS011;45234;48.148;17.128;2023-04-24T08:33:54;3.22;;;2.67;;
24739;SDS011;45234;48.148;17.128;2023-04-24T08:36:24;7.57;;;2.78;;
24739;SDS011;45234;48.148;17.128;2023-04-24T08:39:09;4.85;;;2.88;;
24739;SDS011;45234;48.148;17.128;2023-04-24T08:41:37;7.90;;;3.10;;
24739;SDS011;45234;48.148;17.128;2023-04-24T08:44:04;5.30;;;4.10;;
24739;SDS011;45234;48.148;17.128;2023-04-24T08:46:35;5.78;;;3.22;;
24739;SDS011;45234;48.148;17.128;2023-04-24T08:49:03;9.05;;;3.53;;
24739;SDS011;45234;48.148;17.128;2023-04-24T08:51:31;5.85;;;3.50;;
24739;SDS011;45234;48.148;17.128;2023-04-24T08:53:59;5.53;;;3.40;;
24739;SDS011;45234;48.148;17.128;2023-04-24T08:56:26;4.88;;;3.50;;
24739;SDS011;45234;48.148;17.128;2023-04-24T08:58:55;10.07;;;3.70;;
24739;SDS011;45234;48.148;17.128;2023-04-24T09:01:22;5.40;;;3.75;;
24739;SDS011;45234;48.148;17.128;2023-04-24T09:03:51;5.28;;;3.55;;
24739;SDS011;45234;48.148;17.128;2023-04-24T09:06:19;4.57;;;3.50;;
24739;SDS011;45234;48.148;17.128;2023-04-24T09:08:47;4.90;;;3.45;;
24739;SDS011;45234;48.148;17.128;2023-04-24T09:11:20;3.60;;;3.30;;
24739;SDS011;45234;48.148;17.128;2023-04-24T09:13:49;9.80;;;4.13;;
24739;SDS011;45234;48.148;17.128;2023-04-24T09:16:17;6.28;;;3.33;;
24739;SDS011;45234;48.148;17.128;2023-04-24T09:18:45;3.40;;;2.75;;
24739;SDS011;45234;48.148;17.128;2023-04-24T09:21:12;4.25;;;2.60;;
24739;SDS011;45234;48.148;17.128;2023-04-24T09:23:38;7.95;;;2.90;;
24739;SDS011;45234;48.148;17.128;2023-04-24T09:26:06;4.30;;;2.35;;
24739;SDS011;45234;48.148;17.128;2023-04-24T09:28:40;5.43;;;2.40;;
24739;SDS011;45234;48.148;17.128;2023-04-24T09:31:09;6.13;;;2.67;;
24739;SDS011;45234;48.148;17.128;2023-04-24T09:33:39;3.67;;;2.65;;
24739;SDS011;45234;48.148;17.128;2023-04-24T09:36:27;3.72;;;1.92;;
24739;SDS011;45234;48.148;17.128;2023-04-24T09:39:01;3.28;;;2.38;;
24739;SDS011;45234;48.148;17.128;2023-04-24T09:41:31;8.93;;;3.00;;
24739;SDS011;45234;48.148;17.128;2023-04-24T09:44:10;6.00;;;2.55;;
24739;SDS011;45234;48.148;17.128;2023-04-24T09:46:41;3.13;;;2.70;;
24739;SDS011;45234;48.148;17.128;2023-04-24T09:49:11;4.90;;;2.65;;
24739;SDS011;45234;48.148;17.128;2023-04-24T09:51:41;4.30;;;2.35;;
24739;SDS011;45234;48.148;17.128;2023-04-24T09:54:15;3.00;;;2.20;;
24739;SDS011;45234;48.148;17.128;2023-04-24T09:56:44;5.15;;;2.10;;
24739;SDS011;45234;48.148;17.128;2023-04-24T09:59:14;3.95;;;2.45;;
24739;SDS011;45234;48.148;17.128;2023-04-24T10:01:42;3.80;;;2.30;;
24739;SDS011;45234;48.148;17.128;2023-04-24T10:04:17;6.60;;;2.03;;
24739;SDS011;45234;48.148;17.128;2023-04-24T10:06:46;2.17;;;1.98;;
24739;SDS011;45234;48.148;17.128;2023-04-24T10:09:16;5.13;;;2.42;;
24739;SDS011;45234;48.148;17.128;2023-04-24T10:11:45;2.40;;;2.15;;
24739;SDS011;45234;48.148;17.128;2023-04-24T10:14:16;3.08;;;2.33;;
24739;SDS011;45234;48.148;17.128;2023-04-24T10:16:46;2.38;;;1.55;;
24739;SDS011;45234;48.148;17.128;2023-04-24T10:19:14;4.88;;;1.70;;
24739;SDS011;45234;48.148;17.128;2023-04-24T10:21:42;3.55;;;1.45;;
24739;SDS011;45234;48.148;17.128;2023-04-24T10:24:16;2.03;;;1.42;;
24739;SDS011;45234;48.148;17.128;2023-04-24T10:26:45;2.42;;;1.20;;
24739;SDS011;45234;48.148;17.128;2023-04-24T10:29:16;2.30;;;1.33;;
24739;SDS011;45234;48.148;17.128;2023-04-24T10:31:44;1.63;;;1.42;;
24739;SDS011;45234;48.148;17.128;2023-04-24T10:34:13;1.40;;;1.25;;
24739;SDS011;45234;48.148;17.128;2023-04-24T10:36:44;5.63;;;1.30;;
24739;SDS011;45234;48.148;17.128;2023-04-24T10:39:15;2.05;;;1.20;;
24739;SDS011;45234;48.148;17.128;2023-04-24T10:41:52;2.25;;;1.27;;
24739;SDS011;45234;48.148;17.128;2023-04-24T10:44:24;1.77;;;1.33;;
24739;SDS011;45234;48.148;17.128;2023-04-24T10:47:01;3.97;;;1.10;;
24739;SDS011;45234;48.148;17.128;2023-04-24T10:49:29;2.90;;;1.27;;
24739;SDS011;45234;48.148;17.128;2023-04-24T10:52:01;2.20;;;1.02;;
24739;SDS011;45234;48.148;17.128;2023-04-24T10:54:35;1.55;;;1.20;;
24739;SDS011;45234;48.148;17.128;2023-04-24T10:59:46;1.25;;;1.05;;
24739;SDS011;45234;48.148;17.128;2023-04-24T11:02:38;1.00;;;0.90;;
24739;SDS011;45234;48.148;17.128;2023-04-24T11:05:06;2.78;;;1.13;;
24739;SDS011;45234;48.148;17.128;2023-04-24T11:10:46;4.47;;;1.15;;
24739;SDS011;45234;48.148;17.128;2023-04-24T11:13:23;1.67;;;1.02;;
24739;SDS011;45234;48.148;17.128;2023-04-24T11:18:43;2.13;;;1.63;;
24739;SDS011;45234;48.148;17.128;2023-04-24T11:21:17;4.93;;;1.38;;
24739;SDS011;45234;48.148;17.128;2023-04-24T11:23:45;4.68;;;1.00;;
24739;SDS011;45234;48.148;17.128;2023-04-24T11:26:13;2.05;;;1.23;;
24739;SDS011;45234;48.148;17.128;2023-04-24T11:28:46;1.80;;;1.42;;
24739;SDS011;45234;48.148;17.128;2023-04-24T11:34:11;4.50;;;1.27;;
24739;SDS011;45234;48.148;17.128;2023-04-24T11:36:40;2.75;;;1.30;;
24739;SDS011;45234;48.148;17.128;2023-04-24T11:39:09;4.35;;;1.58;;
24739;SDS011;45234;48.148;17.128;2023-04-24T11:41:37;5.80;;;1.52;;
24739;SDS011;45234;48.148;17.128;2023-04-24T11:44:06;5.85;;;1.60;;
24739;SDS011;45234;48.148;17.128;2023-04-24T11:46:34;1.90;;;1.25;;
24739;SDS011;45234;48.148;17.128;2023-04-24T11:49:06;1.83;;;1.38;;
24739;SDS011;45234;48.148;17.128;2023-04-24T11:51:33;2.03;;;1.50;;
24739;SDS011;45234;48.148;17.128;2023-04-24T11:54:15;5.75;;;1.60;;
24739;SDS011;45234;48.148;17.128;2023-04-24T11:56:46;2.70;;;1.55;;
24739;SDS011;45234;48.148;17.128;2023-04-24T11:59:15;2.47;;;1.83;;
24739;SDS011;45234;48.148;17.128;2023-04-24T12:01:45;3.13;;;1.70;;
24739;SDS011;45234;48.148;17.128;2023-04-24T12:04:13;3.55;;;1.80;;
24739;SDS011;45234;48.148;17.128;2023-04-24T12:06:59;2.42;;;1.50;;
24739;SDS011;45234;48.148;17.128;2023-04-24T12:09:40;1.65;;;1.55;;
24739;SDS011;45234;48.148;17.128;2023-04-24T12:12:08;1.90;;;1.38;;
24739;SDS011;45234;48.148;17.128;2023-04-24T12:14:48;2.10;;;1.83;;
24739;SDS011;45234;48.148;17.128;2023-04-24T12:17:26;2.25;;;1.65;;
24739;SDS011;45234;48.148;17.128;2023-04-24T12:19:58;3.58;;;1.55;;
24739;SDS011;45234;48.148;17.128;2023-04-24T12:22:46;4.05;;;1.73;;
24739;SDS011;45234;48.148;17.128;2023-04-24T12:25:21;5.32;;;1.80;;
24739;SDS011;45234;48.148;17.128;2023-04-24T12:27:54;2.40;;;1.15;;
24739;SDS011;45234;48.148;17.128;2023-04-24T12:30:42;3.05;;;1.10;;
24739;SDS011;45234;48.148;17.128;2023-04-24T12:33:17;2.58;;;1.15;;
24739;SDS011;45234;48.148;17.128;2023-04-24T12:35:47;1.35;;;1.20;;
24739;SDS011;45234;48.148;17.128;2023-04-24T12:38:21;2.60;;;1.20;;
24739;SDS011;45234;48.148;17.128;2023-04-24T12:41:09;3.88;;;1.50;;
24739;SDS011;45234;48.148;17.128;2023-04-24T12:43:50;2.55;;;1.27;;
24739;SDS011;45234;48.148;17.128;2023-04-24T12:46:18;1.33;;;1.15;;
24739;SDS011;45234;48.148;17.128;2023-04-24T12:48:47;1.85;;;1.67;;
24739;SDS011;45234;48.148;17.128;2023-04-24T12:51:14;1.55;;;1.38;;
24739;SDS011;45234;48.148;17.128;2023-04-24T12:53:42;1.88;;;1.40;;
24739;SDS011;45234;48.148;17.128;2023-04-24T12:56:09;1.63;;;1.40;;
24739;SDS011;45234;48.148;17.128;2023-04-24T12:58:36;3.88;;;1.42;;
24739;SDS011;45234;48.148;17.128;2023-04-24T13:01:02;3.10;;;1.63;;
24739;SDS011;45234;48.148;17.128;2023-04-24T13:03:31;1.73;;;1.50;;
24739;SDS011;45234;48.148;17.128;2023-04-24T13:05:58;2.08;;;1.50;;
24739;SDS011;45234;48.148;17.128;2023-04-24T13:08:25;1.80;;;1.30;;
24739;SDS011;45234;48.148;17.128;2023-04-24T13:10:52;1.98;;;1.20;;
24739;SDS011;45234;48.148;17.128;2023-04-24T13:13:19;3.58;;;1.48;;
24739;SDS011;45234;48.148;17.128;2023-04-24T13:15:46;2.92;;;1.45;;
24739;SDS011;45234;48.148;17.128;2023-04-24T13:18:13;3.17;;;1.50;;
24739;SDS011;45234;48.148;17.128;2023-04-24T13:20:42;2.55;;;1.55;;
24739;SDS011;45234;48.148;17.128;2023-04-24T13:23:13;1.77;;;1.60;;
24739;SDS011;45234;48.148;17.128;2023-04-24T13:25:41;3.63;;;1.98;;
24739;SDS011;45234;48.148;17.128;2023-04-24T13:28:08;2.03;;;1.55;;
24739;SDS011;45234;48.148;17.128;2023-04-24T13:30:36;4.22;;;1.58;;
24739;SDS011;45234;48.148;17.128;2023-04-24T13:33:03;2.83;;;1.60;;
24739;SDS011;45234;48.148;17.128;2023-04-24T13:35:31;3.75;;;1.35;;
24739;SDS011;45234;48.148;17.128;2023-04-24T13:37:58;2.63;;;1.63;;
24739;SDS011;45234;48.148;17.128;2023-04-24T13:40:27;2.90;;;1.75;;
24739;SDS011;45234;48.148;17.128;2023-04-24T13:42:57;2.75;;;1.65;;
24739;SDS011;45234;48.148;17.128;2023-04-24T13:45:24;1.98;;;1.63;;
24739;SDS011;45234;48.148;17.128;2023-04-24T13:47:52;4.60;;;1.60;;
24739;SDS011;45234;48.148;17.128;2023-04-24T13:50:20;3.85;;;2.00;;
24739;SDS011;45234;48.148;17.128;2023-04-24T13:52:47;3.30;;;1.90;;
24739;SDS011;45234;48.148;17.128;2023-04-24T13:55:16;2.55;;;1.58;;
24739;SDS011;45234;48.148;17.128;2023-04-24T13:57:44;3.33;;;1.20;;
24739;SDS011;45234;48.148;17.128;2023-04-24T14:00:11;1.65;;;1.10;;
24739;SDS011;45234;48.148;17.128;2023-04-24T14:02:39;2.17;;;1.27;;
24739;SDS011;45234;48.148;17.128;2023-04-24T14:05:06;3.83;;;1.30;;
24739;SDS011;45234;48.148;17.128;2023-04-24T14:07:34;2.17;;;1.33;;
24739;SDS011;45234;48.148;17.128;2023-04-24T14:10:01;3.85;;;1.20;;
24739;SDS011;45234;48.148;17.128;2023-04-24T14:12:31;4.53;;;1.50;;
24739;SDS011;45234;48.148;17.128;2023-04-24T14:14:58;2.83;;;1.40;;
24739;SDS011;45234;48.148;17.128;2023-04-24T14:17:25;6.38;;;2.00;;
24739;SDS011;45234;48.148;17.128;2023-04-24T14:19:52;1.63;;;0.88;;
24739;SDS011;45234;48.148;17.128;2023-04-24T14:22:22;2.35;;;0.80;;
24739;SDS011;45234;48.148;17.128;2023-04-24T14:24:49;2.30;;;0.98;;
24739;SDS011;45234;48.148;17.128;2023-04-24T14:27:16;2.75;;;1.10;;
24739;SDS011;45234;48.148;17.128;2023-04-24T14:29:43;2.20;;;0.85;;
24739;SDS011;45234;48.148;17.128;2023-04-24T14:32:10;2.45;;;1.77;;
24739;SDS011;45234;48.148;17.128;2023-04-24T14:34:40;1.77;;;1.20;;
24739;SDS011;45234;48.148;17.128;2023-04-24T14:37:07;0.98;;;0.70;;
24739;SDS011;45234;48.148;17.128;2023-04-24T14:39:34;1.15;;;0.77;;
24739;SDS011;45234;48.148;17.128;2023-04-24T14:42:01;1.00;;;0.60;;
24739;SDS011;45234;48.148;17.128;2023-04-24T14:44:28;2.38;;;0.80;;
24739;SDS011;45234;48.148;17.128;2023-04-24T14:46:59;1.48;;;0.60;;
24739;SDS011;45234;48.148;17.128;2023-04-24T14:49:26;1.50;;;0.60;;